Time;durP1;ratioP1;P1;durP2;ratioP2;P2;SDS_P1;SDS_P2;PMS_P1;PMS_P2;Temp;Humidity;BMP_temperature;BMP_pressure;BME280_temperature;BME280_humidity;BME280_pressure;Samples;Min_cycle;Max_cycle;Signal;HPM_P1;HPM_P2
2021/12/22 00:00:24;;;;;;;70.73;34.93;;;-1.00;99.90;;;;;;5076725;28;20193;-65
2021/12/22 00:02:50;;;;;;;68.40;34.10;;;-1.10;99.90;;;;;;5079230;28;20626;-65
2021/12/22 00:05:19;;;;;;;58.43;31.57;;;-1.10;99.90;;;;;;5060153;28;20185;-66
2021/12/22 00:07:45;;;;;;;70.33;31.10;;;-1.10;99.90;;;;;;5094395;28;20247;-65
2021/12/22 00:10:11;;;;;;;52.67;28.30;;;-1.10;99.90;;;;;;5059646;28;20228;-66
2021/12/22 00:12:37;;;;;;;44.63;28.00;;;-1.00;99.90;;;;;;5076342;28;20185;-66
2021/12/22 00:15:04;;;;;;;40.17;24.50;;;-0.80;99.90;;;;;;5061021;28;20551;-66
2021/12/22 00:17:30;;;;;;;38.27;25.37;;;-0.50;99.90;;;;;;5059984;28;20212;-67
2021/12/22 00:19:56;;;;;;;45.90;27.10;;;-0.40;99.90;;;;;;5093643;28;20193;-66
2021/12/22 00:22:22;;;;;;;42.23;26.53;;;-0.40;99.90;;;;;;5093738;28;20195;-66
2021/12/22 00:24:48;;;;;;;40.57;27.57;;;-0.20;99.90;;;;;;5070712;28;20554;-66
2021/12/22 00:27:14;;;;;;;48.53;30.60;;;-0.30;99.90;;;;;;5064039;28;20332;-66
2021/12/22 00:29:41;;;;;;;47.97;28.67;;;-0.50;99.90;;;;;;5093693;28;20195;-66
2021/12/22 00:32:10;;;;;;;51.07;28.30;;;-0.80;99.90;;;;;;5059595;28;20630;-66
2021/12/22 00:34:45;;;;;;;45.43;27.43;;;-0.90;99.90;;;;;;5075645;28;20554;-67
2021/12/22 00:37:11;;;;;;;48.27;28.03;;;-1.00;99.90;;;;;;5065573;28;20191;-66
2021/12/22 00:39:37;;;;;;;56.80;31.93;;;-1.20;99.90;;;;;;5058978;28;20276;-66
2021/12/22 00:42:03;;;;;;;43.63;27.27;;;-1.30;99.90;;;;;;5052871;28;20287;-66
2021/12/22 00:44:28;;;;;;;48.50;27.90;;;-1.40;99.90;;;;;;5056524;28;20247;-67
2021/12/22 00:46:54;;;;;;;47.30;27.47;;;-1.40;99.90;;;;;;5048744;28;20199;-66
2021/12/22 00:49:20;;;;;;;45.10;29.13;;;-1.30;99.90;;;;;;5075423;28;20216;-66
2021/12/22 00:51:46;;;;;;;46.83;29.50;;;-1.30;99.90;;;;;;5075022;28;20215;-66
2021/12/22 00:54:11;;;;;;;51.40;27.90;;;-1.00;99.90;;;;;;5071883;28;20635;-66
2021/12/22 00:56:38;;;;;;;47.50;27.90;;;-0.90;99.90;;;;;;5039453;28;20298;-67
2021/12/22 00:59:04;;;;;;;53.27;27.17;;;-1.00;99.90;;;;;;5062643;28;20192;-66
2021/12/22 01:01:30;;;;;;;45.23;26.50;;;-0.90;99.90;;;;;;5057444;28;20246;-67
2021/12/22 01:03:56;;;;;;;48.27;28.90;;;-1.10;99.90;;;;;;5074455;28;20645;-67
2021/12/22 01:06:23;;;;;;;41.30;26.23;;;-1.20;99.90;;;;;;5058772;28;20682;-66
2021/12/22 01:08:49;;;;;;;44.33;26.63;;;-1.30;99.90;;;;;;5041278;28;20224;-67
2021/12/22 01:11:15;;;;;;;47.13;26.97;;;-1.30;99.90;;;;;;5093936;28;20253;-66
2021/12/22 01:13:41;;;;;;;48.40;26.13;;;-1.10;99.90;;;;;;5075028;28;20716;-66
2021/12/22 01:16:07;;;;;;;42.80;25.90;;;-1.10;99.90;;;;;;5058610;28;20208;-66
2021/12/22 01:18:34;;;;;;;45.07;27.43;;;-1.20;99.90;;;;;;5070794;28;20568;-66
2021/12/22 01:23:37;;;;;;;33.77;24.43;;;-1.40;99.90;;;;;;5092749;28;20630;-67
2021/12/22 01:26:05;;;;;;;43.47;28.67;;;-1.40;99.90;;;;;;5074201;28;20503;-66
2021/12/22 01:28:31;;;;;;;41.40;26.23;;;-1.40;99.90;;;;;;5064642;28;20220;-67
2021/12/22 01:31:02;;;;;;;35.67;25.20;;;-1.40;99.90;;;;;;5050213;28;20192;-67
2021/12/22 01:33:27;;;;;;;37.57;25.13;;;-1.40;99.90;;;;;;5074414;28;20550;-65
2021/12/22 01:35:53;;;;;;;41.37;26.63;;;-1.40;99.90;;;;;;5068295;28;20226;-67
2021/12/22 01:38:19;;;;;;;42.33;26.40;;;-1.50;99.90;;;;;;5071570;28;20190;-69
2021/12/22 01:40:46;;;;;;;41.77;25.83;;;-1.50;99.90;;;;;;5058109;28;20185;-66
2021/12/22 01:43:14;;;;;;;40.50;26.07;;;-1.50;99.90;;;;;;5074816;28;20249;-67
2021/12/22 01:51:44;;;;;;;40.53;26.00;;;-1.50;99.90;;;;;;5092858;28;20248;-65
2021/12/22 01:54:13;;;;;;;41.10;24.60;;;-1.60;99.90;;;;;;5074353;28;20187;-64
2021/12/22 01:56:41;;;;;;;46.90;25.67;;;-1.60;99.90;;;;;;5092660;28;20222;-67
2021/12/22 01:59:08;;;;;;;39.73;24.30;;;-1.60;99.90;;;;;;5092812;28;20314;-67
2021/12/22 02:01:34;;;;;;;37.77;25.70;;;-1.70;99.90;;;;;;5092930;28;20180;-67
2021/12/22 02:04:03;;;;;;;41.23;25.53;;;-1.70;99.90;;;;;;5092052;28;20198;-67
2021/12/22 02:06:29;;;;;;;39.10;25.63;;;-1.70;99.90;;;;;;5081280;28;20183;-66
2021/12/22 02:08:55;;;;;;;36.50;25.03;;;-1.70;99.90;;;;;;5057410;28;20230;-67
2021/12/22 02:11:22;;;;;;;40.53;24.63;;;-1.70;99.90;;;;;;5057971;28;20645;-66
2021/12/22 02:13:55;;;;;;;40.40;26.60;;;-1.70;99.90;;;;;;5039634;28;20194;-66
2021/12/22 02:16:26;;;;;;;41.37;25.57;;;-1.70;99.90;;;;;;5090730;28;20183;-70
2021/12/22 02:18:54;;;;;;;39.13;25.27;;;-1.60;99.90;;;;;;5092340;28;20203;-64
2021/12/22 02:21:22;;;;;;;42.23;24.43;;;-1.70;99.90;;;;;;5092715;28;20246;-65
2021/12/22 02:23:48;;;;;;;45.00;24.77;;;-1.70;99.90;;;;;;5092595;28;20229;-66
2021/12/22 02:26:23;;;;;;;43.73;27.23;;;-1.70;99.90;;;;;;5071012;28;20185;-64
2021/12/22 02:28:57;;;;;;;43.90;25.87;;;-1.70;99.90;;;;;;5069924;28;20217;-64
2021/12/22 02:31:24;;;;;;;39.13;26.50;;;-1.80;99.90;;;;;;5074105;28;20191;-65
2021/12/22 02:33:51;;;;;;;48.60;27.60;;;-1.90;99.90;;;;;;5084276;28;20187;-64
2021/12/22 02:38:47;;;;;;;45.97;27.07;;;-1.80;99.90;;;;;;5083554;28;20208;-65
2021/12/22 02:41:14;;;;;;;40.43;27.50;;;-1.80;99.90;;;;;;5072327;28;20192;-65
2021/12/22 02:43:45;;;;;;;39.03;25.10;;;-1.80;99.90;;;;;;5071047;28;20271;-65
2021/12/22 02:46:13;;;;;;;40.77;29.20;;;-1.80;99.90;;;;;;5089836;28;20271;-65
2021/12/22 02:48:40;;;;;;;43.73;25.03;;;-1.80;99.90;;;;;;5072878;28;20742;-65
2021/12/22 02:51:05;;;;;;;49.47;24.67;;;-1.70;99.90;;;;;;5071570;28;20282;-66
2021/12/22 02:53:41;;;;;;;50.10;27.13;;;-1.60;99.90;;;;;;5077987;28;20633;-65
2021/12/22 02:56:35;;;;;;;54.27;26.57;;;-1.70;99.90;;;;;;5079433;28;20187;-65
2021/12/22 03:04:09;;;;;;;37.50;24.47;;;-1.80;99.90;;;;;;5068582;28;20212;-66
2021/12/22 03:09:15;;;;;;;42.30;23.83;;;-1.90;99.90;;;;;;5087211;28;20238;-67
2021/12/22 03:11:40;;;;;;;46.47;24.30;;;-1.90;99.90;;;;;;5077289;28;20188;-66
2021/12/22 03:14:06;;;;;;;40.40;27.20;;;-1.90;99.90;;;;;;5077483;28;20258;-65
2021/12/22 03:16:31;;;;;;;41.73;25.00;;;-1.80;99.90;;;;;;5074090;28;20219;-66
2021/12/22 03:18:57;;;;;;;40.00;23.37;;;-1.90;99.90;;;;;;5057364;28;20200;-67
2021/12/22 03:21:23;;;;;;;36.40;23.93;;;-1.90;99.90;;;;;;5067760;28;20199;-66
2021/12/22 03:23:52;;;;;;;41.93;24.70;;;-1.90;99.90;;;;;;5066650;28;20188;-65
2021/12/22 03:26:18;;;;;;;41.43;24.17;;;-2.00;99.90;;;;;;5071853;28;20196;-65
2021/12/22 03:28:48;;;;;;;37.17;23.20;;;-2.00;99.90;;;;;;5079683;28;20573;-65
2021/12/22 03:31:14;;;;;;;38.40;26.50;;;-2.00;99.90;;;;;;5076166;28;20252;-65
2021/12/22 03:33:41;;;;;;;34.03;23.00;;;-2.00;99.90;;;;;;5072599;28;20192;-65
2021/12/22 03:36:07;;;;;;;38.33;22.07;;;-2.00;99.90;;;;;;5071120;28;20203;-65
2021/12/22 03:38:34;;;;;;;39.47;24.17;;;-2.00;99.90;;;;;;5070303;28;20211;-65
2021/12/22 03:41:00;;;;;;;33.10;24.10;;;-2.00;99.90;;;;;;5077119;28;20603;-65
2021/12/22 03:43:26;;;;;;;38.83;23.87;;;-2.10;99.90;;;;;;5077131;28;20215;-65
2021/12/22 03:45:52;;;;;;;41.63;23.93;;;-2.10;99.90;;;;;;5092992;28;20278;-65
2021/12/22 03:48:18;;;;;;;38.03;23.30;;;-2.00;99.90;;;;;;5058083;28;20311;-65
2021/12/22 03:50:45;;;;;;;42.57;25.83;;;-2.00;99.90;;;;;;5041201;28;20177;-66
2021/12/22 03:53:11;;;;;;;39.20;23.87;;;-2.10;99.90;;;;;;5057753;28;20279;-66
2021/12/22 03:55:37;;;;;;;33.47;23.03;;;-2.10;99.90;;;;;;5079237;28;20192;-65
2021/12/22 03:58:03;;;;;;;38.53;23.53;;;-2.10;99.90;;;;;;5086909;28;20200;-66
2021/12/22 04:00:30;;;;;;;42.80;24.03;;;-2.20;99.90;;;;;;5094311;28;20187;-66
2021/12/22 04:02:56;;;;;;;42.50;23.97;;;-2.10;99.90;;;;;;5074168;28;20188;-65
2021/12/22 04:05:22;;;;;;;35.17;22.07;;;-1.90;99.90;;;;;;5058592;28;20180;-65
2021/12/22 04:07:48;;;;;;;35.43;25.70;;;-1.80;99.90;;;;;;5094787;28;20279;-65
2021/12/22 04:10:21;;;;;;;45.37;23.77;;;-1.70;99.90;;;;;;5092130;28;20286;-65
2021/12/22 04:12:55;;;;;;;42.40;22.97;;;-1.60;99.90;;;;;;5085592;28;20271;-65
2021/12/22 04:15:23;;;;;;;37.47;22.57;;;-1.70;99.90;;;;;;5075294;28;20191;-66
2021/12/22 04:17:49;;;;;;;42.17;26.60;;;-1.70;99.90;;;;;;5088782;28;20689;-65
2021/12/22 04:20:16;;;;;;;37.10;23.80;;;-1.80;99.90;;;;;;5071062;28;20195;-66
2021/12/22 04:22:42;;;;;;;45.17;24.10;;;-1.90;99.90;;;;;;5084173;28;20187;-65
2021/12/22 04:25:09;;;;;;;39.03;25.20;;;-1.90;99.90;;;;;;5076443;28;20190;-65
2021/12/22 04:27:35;;;;;;;35.57;21.77;;;-2.10;99.90;;;;;;5094108;28;20276;-65
2021/12/22 04:30:04;;;;;;;40.27;26.23;;;-2.10;99.90;;;;;;5094005;28;20670;-65
2021/12/22 04:32:30;;;;;;;37.63;24.57;;;-2.10;99.90;;;;;;5075902;28;20557;-65
2021/12/22 04:34:55;;;;;;;34.67;23.80;;;-2.10;99.90;;;;;;5058804;28;20195;-65
2021/12/22 04:37:21;;;;;;;41.00;24.70;;;-2.10;99.90;;;;;;5082098;28;20190;-65
2021/12/22 04:39:47;;;;;;;40.73;24.40;;;-1.90;99.90;;;;;;5076008;28;20212;-65
2021/12/22 04:42:15;;;;;;;36.33;22.90;;;-1.80;99.90;;;;;;5087039;28;20218;-65
2021/12/22 04:44:41;;;;;;;37.13;23.93;;;-1.60;99.90;;;;;;5057264;28;20650;-66
2021/12/22 04:47:06;;;;;;;38.20;24.20;;;-1.70;99.90;;;;;;5072120;28;20214;-65
2021/12/22 04:49:32;;;;;;;38.57;24.27;;;-1.70;99.90;;;;;;5093773;28;20658;-65
2021/12/22 04:51:59;;;;;;;41.10;26.83;;;-1.60;99.90;;;;;;5073820;28;20252;-65
2021/12/22 04:56:55;;;;;;;40.97;24.50;;;-1.70;99.90;;;;;;5061322;28;20255;-65
2021/12/22 04:59:21;;;;;;;39.33;23.30;;;-1.90;99.90;;;;;;5081501;28;20264;-65
2021/12/22 05:01:47;;;;;;;43.63;24.00;;;-2.20;99.90;;;;;;5074452;28;20193;-65
2021/12/22 05:04:13;;;;;;;33.40;22.83;;;-2.40;99.90;;;;;;5081759;28;20681;-65
2021/12/22 05:06:39;;;;;;;36.60;22.00;;;-2.40;99.90;;;;;;5091991;28;20709;-65
2021/12/22 05:09:06;;;;;;;40.17;22.07;;;-2.30;99.90;;;;;;5075001;28;20230;-65
2021/12/22 05:11:33;;;;;;;31.77;21.47;;;-2.30;99.90;;;;;;5075127;28;20648;-64
2021/12/22 05:13:59;;;;;;;33.20;21.53;;;-2.30;99.90;;;;;;5075247;28;20196;-64
2021/12/22 05:16:24;;;;;;;36.20;21.73;;;-2.30;99.90;;;;;;5075187;28;20188;-65
2021/12/22 05:19:11;;;;;;;34.67;21.50;;;-2.30;99.90;;;;;;5093168;28;20196;-65
2021/12/22 05:21:37;;;;;;;39.63;23.90;;;-2.10;99.90;;;;;;5075310;28;20311;-66
2021/12/22 05:24:03;;;;;;;34.20;21.30;;;-1.70;99.90;;;;;;5081919;28;20680;-65
2021/12/22 05:26:29;;;;;;;38.43;21.00;;;-1.80;99.90;;;;;;5068033;28;20194;-66
2021/12/22 05:28:55;;;;;;;39.33;22.10;;;-1.90;99.90;;;;;;5076355;28;20219;-66
2021/12/22 05:31:24;;;;;;;39.13;21.77;;;-2.00;99.90;;;;;;5075767;28;20181;-66
2021/12/22 05:33:50;;;;;;;37.20;22.07;;;-2.10;99.90;;;;;;5091690;28;20187;-66
2021/12/22 05:36:16;;;;;;;32.43;20.93;;;-2.20;99.90;;;;;;5064154;28;20194;-66
2021/12/22 05:38:42;;;;;;;35.87;19.17;;;-2.20;99.90;;;;;;5057589;28;20267;-66
2021/12/22 05:41:08;;;;;;;37.73;21.00;;;-2.00;99.90;;;;;;5056148;28;20278;-66
2021/12/22 05:43:34;;;;;;;35.63;22.27;;;-1.80;99.90;;;;;;5052562;28;20595;-67
2021/12/22 05:46:00;;;;;;;29.53;20.73;;;-1.80;99.90;;;;;;5088875;28;20191;-66
2021/12/22 05:48:27;;;;;;;34.60;21.67;;;-1.70;99.90;;;;;;5061590;28;20207;-66
2021/12/22 05:50:58;;;;;;;37.80;22.10;;;-1.90;99.90;;;;;;5058071;28;20297;-64
2021/12/22 05:53:27;;;;;;;27.40;21.43;;;-2.00;99.90;;;;;;5075244;28;20247;-66
2021/12/22 05:55:53;;;;;;;35.20;22.60;;;-2.20;99.90;;;;;;5072850;28;20410;-65
2021/12/22 05:58:19;;;;;;;37.03;19.77;;;-2.10;99.90;;;;;;5090894;28;20216;-65
2021/12/22 06:00:45;;;;;;;31.07;19.77;;;-2.10;99.90;;;;;;5053236;28;20272;-64
2021/12/22 06:03:11;;;;;;;35.67;19.77;;;-2.10;99.90;;;;;;5090033;28;20274;-66
2021/12/22 06:05:38;;;;;;;30.27;19.07;;;-2.20;99.90;;;;;;5055538;28;20192;-65
2021/12/22 06:08:04;;;;;;;30.47;21.17;;;-2.20;99.90;;;;;;5055579;28;20224;-65
2021/12/22 06:10:31;;;;;;;29.40;19.30;;;-2.20;99.90;;;;;;5060470;28;20199;-66
2021/12/22 06:12:56;;;;;;;29.70;19.90;;;-2.30;99.90;;;;;;5092668;28;20266;-65
2021/12/22 06:15:22;;;;;;;24.53;17.13;;;-2.30;99.90;;;;;;5092577;28;20222;-65
2021/12/22 06:17:53;;;;;;;28.60;20.27;;;-2.30;99.90;;;;;;5041459;28;20191;-65
2021/12/22 06:20:19;;;;;;;36.13;19.73;;;-2.30;99.90;;;;;;5078165;28;20197;-65
2021/12/22 06:22:45;;;;;;;28.50;18.50;;;-2.30;99.90;;;;;;5078607;28;20190;-65
2021/12/22 06:25:11;;;;;;;32.30;19.17;;;-2.40;99.90;;;;;;5078958;28;20199;-64
2021/12/22 06:27:37;;;;;;;31.60;18.73;;;-2.30;99.90;;;;;;5075052;28;20272;-64
2021/12/22 06:30:03;;;;;;;33.43;20.30;;;-2.30;99.90;;;;;;5048863;28;20674;-65
2021/12/22 06:32:29;;;;;;;49.63;21.77;;;-2.40;99.90;;;;;;5068783;28;20196;-65
2021/12/22 06:34:54;;;;;;;42.40;20.17;;;-2.40;99.90;;;;;;5066707;28;20675;-65
2021/12/22 06:37:20;;;;;;;34.10;19.53;;;-2.40;99.90;;;;;;5090721;28;20210;-65
2021/12/22 06:39:46;;;;;;;31.63;19.23;;;-2.30;99.90;;;;;;5077013;28;20183;-65
2021/12/22 06:42:11;;;;;;;25.03;18.47;;;-2.20;99.90;;;;;;5066904;28;20636;-65
2021/12/22 06:44:40;;;;;;;33.63;18.70;;;-2.30;99.90;;;;;;5074850;28;20199;-65
2021/12/22 06:47:07;;;;;;;33.17;18.90;;;-2.40;99.90;;;;;;5070294;28;20265;-65
2021/12/22 06:49:33;;;;;;;34.50;19.53;;;-2.40;99.90;;;;;;5092165;28;20211;-64
2021/12/22 06:51:58;;;;;;;31.40;17.73;;;-2.50;99.90;;;;;;5078016;28;20204;-65
2021/12/22 06:54:24;;;;;;;25.47;17.07;;;-2.40;99.90;;;;;;5078156;28;20211;-65
2021/12/22 06:56:50;;;;;;;35.93;19.97;;;-2.40;99.90;;;;;;5096342;28;20206;-65
2021/12/22 06:59:15;;;;;;;24.53;16.83;;;-2.40;99.90;;;;;;5077789;28;20290;-65
2021/12/22 07:01:45;;;;;;;34.37;17.73;;;-2.40;99.90;;;;;;5044036;28;20220;-65
2021/12/22 07:04:11;;;;;;;31.57;17.63;;;-2.40;99.90;;;;;;5058700;28;20187;-65
2021/12/22 07:06:37;;;;;;;32.97;18.93;;;-2.40;99.90;;;;;;5071796;28;20617;-65
2021/12/22 07:09:05;;;;;;;28.83;17.50;;;-2.40;99.90;;;;;;5064917;28;20227;-66
2021/12/22 07:11:32;;;;;;;24.23;17.07;;;-2.40;99.90;;;;;;5049596;28;20220;-66
2021/12/22 07:13:57;;;;;;;26.30;16.53;;;-2.40;99.90;;;;;;5089978;28;20254;-66
2021/12/22 07:16:23;;;;;;;23.53;15.90;;;-2.40;99.90;;;;;;5067817;28;20192;-67
2021/12/22 07:18:49;;;;;;;28.67;17.23;;;-2.40;99.90;;;;;;5091313;28;20187;-67
2021/12/22 07:21:15;;;;;;;27.40;16.87;;;-2.30;99.90;;;;;;5073730;28;20192;-67
2021/12/22 07:23:40;;;;;;;28.13;17.33;;;-2.30;99.90;;;;;;5063680;28;20188;-67
2021/12/22 07:26:07;;;;;;;28.30;17.80;;;-2.30;99.90;;;;;;5068092;28;20664;-67
2021/12/22 07:28:33;;;;;;;27.83;18.43;;;-2.40;99.90;;;;;;5072186;28;20646;-67
2021/12/22 07:30:59;;;;;;;32.33;17.27;;;-2.40;99.90;;;;;;5093740;28;20303;-67
2021/12/22 07:33:24;;;;;;;29.37;16.23;;;-2.40;99.90;;;;;;5076727;28;20651;-68
2021/12/22 07:35:56;;;;;;;28.43;17.73;;;-2.50;99.90;;;;;;5059592;28;20179;-67
2021/12/22 07:38:51;;;;;;;26.10;17.50;;;-2.40;99.90;;;;;;5076159;28;20677;-68
2021/12/22 07:41:16;;;;;;;25.90;16.03;;;-2.40;99.90;;;;;;5074284;28;20267;-66
2021/12/22 07:43:42;;;;;;;24.70;16.33;;;-2.30;99.90;;;;;;5077121;28;20191;-66
2021/12/22 07:46:08;;;;;;;28.27;17.57;;;-2.40;99.90;;;;;;5086447;28;20646;-67
2021/12/22 07:48:35;;;;;;;25.50;16.00;;;-2.40;99.90;;;;;;5056536;28;20269;-67
2021/12/22 07:51:01;;;;;;;32.03;17.80;;;-2.30;99.90;;;;;;5072359;28;20192;-67
2021/12/22 07:53:27;;;;;;;28.97;16.87;;;-2.30;99.90;;;;;;5067877;28;20250;-68
2021/12/22 07:55:53;;;;;;;29.83;17.80;;;-2.30;99.90;;;;;;5075491;28;20199;-64
2021/12/22 07:58:21;;;;;;;25.63;16.70;;;-2.30;99.90;;;;;;5069034;28;20192;-67
2021/12/22 08:00:47;;;;;;;23.50;16.93;;;-2.30;99.90;;;;;;5071556;28;20198;-72
2021/12/22 08:03:12;;;;;;;28.43;17.40;;;-2.30;99.90;;;;;;5087765;28;20196;-68
2021/12/22 08:05:39;;;;;;;22.80;17.10;;;-2.20;99.90;;;;;;5074061;28;20187;-68
2021/12/22 08:08:05;;;;;;;32.73;18.90;;;-2.20;99.90;;;;;;5076297;28;20243;-65
2021/12/22 08:10:31;;;;;;;30.90;17.57;;;-2.20;99.90;;;;;;5058428;28;20274;-66
2021/12/22 08:12:57;;;;;;;28.67;18.43;;;-2.10;99.90;;;;;;5062519;28;20278;-66
2021/12/22 08:15:23;;;;;;;28.17;18.90;;;-2.10;99.90;;;;;;5056442;28;20187;-66
2021/12/22 08:17:48;;;;;;;43.80;21.50;;;-2.10;99.90;;;;;;5091868;28;20208;-69
2021/12/22 08:20:14;;;;;;;39.13;21.27;;;-2.10;99.90;;;;;;5056979;28;20216;-67
2021/12/22 08:22:40;;;;;;;38.40;20.80;;;-2.00;99.90;;;;;;5068627;28;20271;-66
2021/12/22 08:25:07;;;;;;;35.40;20.13;;;-2.00;99.90;;;;;;5068013;28;20189;-67
2021/12/22 08:27:33;;;;;;;38.87;22.63;;;-2.00;99.90;;;;;;5091506;28;20197;-68
2021/12/22 08:29:59;;;;;;;38.80;20.50;;;-2.00;99.90;;;;;;5083964;28;20189;-68
2021/12/22 08:32:24;;;;;;;37.93;21.43;;;-2.00;99.90;;;;;;5073227;28;20198;-65
2021/12/22 08:34:55;;;;;;;39.37;21.00;;;-1.90;99.90;;;;;;5093968;28;20743;-66
2021/12/22 08:40:07;;;;;;;39.17;22.47;;;-1.80;99.90;;;;;;5071996;28;20203;-67
2021/12/22 08:42:33;;;;;;;48.37;28.60;;;-1.60;99.90;;;;;;5064642;28;20201;-67
2021/12/22 08:44:58;;;;;;;46.67;25.90;;;-1.60;99.90;;;;;;5061010;28;20196;-66
2021/12/22 08:47:24;;;;;;;39.77;24.00;;;-1.60;99.90;;;;;;5049423;28;20191;-68
2021/12/22 08:49:50;;;;;;;40.10;23.93;;;-1.70;99.90;;;;;;5055531;28;20604;-69
2021/12/22 08:52:15;;;;;;;50.43;26.27;;;-1.70;99.90;;;;;;5089815;28;20649;-68
2021/12/22 08:54:41;;;;;;;52.77;29.60;;;-1.70;99.90;;;;;;5061015;28;20205;-67
2021/12/22 08:57:08;;;;;;;44.37;25.73;;;-1.70;99.90;;;;;;5056672;28;20559;-67
2021/12/22 08:59:34;;;;;;;55.47;25.63;;;-1.60;99.90;;;;;;5073482;28;20198;-66
2021/12/22 09:02:00;;;;;;;36.67;23.00;;;-1.50;99.90;;;;;;5086398;28;20230;-67
2021/12/22 09:04:26;;;;;;;33.03;18.00;;;-1.30;99.90;;;;;;5091978;28;20181;-67
2021/12/22 09:06:53;;;;;;;32.07;19.40;;;-0.90;99.90;;;;;;5071229;28;20187;-72
2021/12/22 09:09:20;;;;;;;30.33;18.17;;;-0.70;99.90;;;;;;5092121;28;20219;-66
2021/12/22 09:11:47;;;;;;;34.87;19.33;;;-0.70;99.90;;;;;;5072863;28;20189;-67
2021/12/22 09:14:16;;;;;;;30.70;19.47;;;-0.50;99.90;;;;;;5088998;28;20254;-65
2021/12/22 09:16:43;;;;;;;36.47;19.63;;;-0.50;99.90;;;;;;5089574;28;20192;-67
2021/12/22 09:19:09;;;;;;;31.50;18.63;;;-0.40;99.90;;;;;;5092255;28;20214;-66
2021/12/22 09:21:36;;;;;;;37.63;19.87;;;-0.40;99.90;;;;;;5040817;28;20212;-67
2021/12/22 09:24:03;;;;;;;30.43;17.73;;;-0.10;99.90;;;;;;5091254;28;20185;-68
2021/12/22 09:26:29;;;;;;;30.73;20.17;;;-0.30;99.90;;;;;;5064928;28;20558;-68
2021/12/22 09:28:55;;;;;;;33.23;19.87;;;-0.40;99.90;;;;;;5080594;28;20209;-68
2021/12/22 09:31:21;;;;;;;28.50;17.97;;;-0.60;99.90;;;;;;5063951;28;20189;-70
2021/12/22 09:33:47;;;;;;;27.47;18.23;;;-0.70;99.90;;;;;;5055049;28;20177;-70
2021/12/22 09:36:13;;;;;;;31.37;20.87;;;-0.50;99.90;;;;;;5050831;28;20216;-68
2021/12/22 09:38:39;;;;;;;31.63;18.40;;;-0.10;99.90;;;;;;5085508;28;20266;-68
2021/12/22 09:41:06;;;;;;;30.43;20.33;;;0.10;99.90;;;;;;5051652;28;20234;-69
2021/12/22 09:43:32;;;;;;;30.13;19.20;;;0.00;99.90;;;;;;5080629;28;20181;-70
2021/12/22 09:46:03;;;;;;;30.13;20.60;;;0.00;99.90;;;;;;5068227;28;20627;-69
2021/12/22 09:53:27;;;;;;;31.50;20.73;;;0.00;99.90;;;;;;5083883;28;20206;-68
2021/12/22 09:55:54;;;;;;;25.60;18.33;;;0.10;99.90;;;;;;5083497;28;20194;-69
2021/12/22 09:58:20;;;;;;;33.30;18.70;;;0.10;99.90;;;;;;5050345;28;20188;-69
2021/12/22 10:00:50;;;;;;;32.50;20.13;;;0.10;99.90;;;;;;5061359;28;20206;-71
2021/12/22 10:03:17;;;;;;;30.53;19.27;;;0.00;99.90;;;;;;5064643;28;20191;-71
2021/12/22 10:05:45;;;;;;;35.40;20.27;;;0.00;99.90;;;;;;5083343;28;20213;-70
2021/12/22 10:08:15;;;;;;;28.87;18.90;;;0.20;99.90;;;;;;5051229;28;20593;-70
2021/12/22 10:10:47;;;;;;;31.77;20.87;;;0.40;99.90;;;;;;5066479;28;20301;-70
2021/12/22 10:13:19;;;;;;;24.63;18.53;;;0.60;99.90;;;;;;5080674;28;20659;-70
2021/12/22 10:15:46;;;;;;;32.10;19.90;;;0.60;99.90;;;;;;5080932;28;20414;-70
2021/12/22 10:18:13;;;;;;;31.67;18.13;;;0.60;99.90;;;;;;5050840;28;20195;-70
2021/12/22 10:20:40;;;;;;;28.17;20.03;;;0.80;99.90;;;;;;5082700;28;20185;-70
2021/12/22 10:23:25;;;;;;;34.03;20.10;;;0.80;99.90;;;;;;5047576;28;20194;-70
2021/12/22 10:25:58;;;;;;;30.77;19.63;;;0.60;99.90;;;;;;5063342;28;20506;-70
2021/12/22 10:28:27;;;;;;;32.77;19.13;;;0.80;99.90;;;;;;5066266;28;20670;-70
2021/12/22 10:30:58;;;;;;;31.70;19.23;;;0.90;99.90;;;;;;5055181;28;20665;-70
2021/12/22 10:33:31;;;;;;;28.00;19.97;;;1.10;99.90;;;;;;5085842;28;20183;-70
2021/12/22 10:36:13;;;;;;;28.47;19.13;;;0.90;99.90;;;;;;5092684;28;20188;-70
2021/12/22 10:38:39;;;;;;;33.73;19.63;;;0.50;99.90;;;;;;5092612;28;20218;-70
2021/12/22 10:41:08;;;;;;;25.23;17.73;;;0.60;99.90;;;;;;5074672;28;20270;-70
2021/12/22 10:43:44;;;;;;;30.73;19.13;;;0.50;99.90;;;;;;5074097;28;20267;-70
2021/12/22 10:46:16;;;;;;;29.70;18.43;;;0.50;99.90;;;;;;5073694;28;20295;-70
2021/12/22 10:51:32;;;;;;;30.73;17.67;;;0.50;99.90;;;;;;5069139;28;20217;-70
2021/12/22 10:54:00;;;;;;;29.20;19.33;;;0.40;99.90;;;;;;5062078;28;20185;-70
2021/12/22 10:56:32;;;;;;;27.77;19.57;;;0.30;99.90;;;;;;5085040;28;20186;-71
2021/12/22 10:59:10;;;;;;;26.53;17.70;;;0.80;99.90;;;;;;5085598;28;20193;-71
2021/12/22 11:01:39;;;;;;;29.13;18.30;;;0.90;99.90;;;;;;5082207;28;20228;-71
2021/12/22 11:04:15;;;;;;;26.17;17.00;;;0.90;99.90;;;;;;5063725;28;20200;-71
2021/12/22 11:06:41;;;;;;;26.07;18.63;;;1.10;99.90;;;;;;5068061;28;20188;-71
2021/12/22 11:09:14;;;;;;;26.30;17.63;;;1.20;99.90;;;;;;5049479;28;20305;-71
2021/12/22 11:11:52;;;;;;;27.17;16.83;;;1.00;99.90;;;;;;5065865;28;20203;-71
2021/12/22 11:14:22;;;;;;;26.27;16.53;;;1.10;99.90;;;;;;5079186;28;20172;-71
2021/12/22 11:17:14;;;;;;;27.50;19.80;;;1.30;99.90;;;;;;5096264;28;20666;-71
2021/12/22 11:20:05;;;;;;;26.60;17.17;;;1.40;99.90;;;;;;5057527;28;20665;-69
2021/12/22 11:22:40;;;;;;;29.77;17.40;;;1.40;99.90;;;;;;5085089;28;20559;-71
2021/12/22 11:25:11;;;;;;;30.20;18.57;;;1.50;99.90;;;;;;5081284;28;20216;-71
2021/12/22 11:27:37;;;;;;;22.47;16.53;;;1.70;99.90;;;;;;5095305;28;20168;-74
2021/12/22 11:30:03;;;;;;;27.47;18.07;;;1.70;99.90;;;;;;5050423;28;20637;-72
2021/12/22 11:32:31;;;;;;;30.80;17.10;;;1.40;99.90;;;;;;5084113;28;20683;-72
2021/12/22 11:35:00;;;;;;;27.30;16.13;;;1.20;99.90;;;;;;5069897;28;20276;-72
2021/12/22 11:37:27;;;;;;;25.93;16.07;;;0.90;99.90;;;;;;5081791;28;20194;-72
2021/12/22 11:39:55;;;;;;;27.03;17.77;;;0.80;99.90;;;;;;5066864;28;20539;-72
2021/12/22 11:42:25;;;;;;;25.27;17.13;;;0.90;99.90;;;;;;5070709;28;20322;-72
2021/12/22 11:44:54;;;;;;;26.60;17.03;;;0.80;99.90;;;;;;5068675;28;20219;-72
2021/12/22 11:47:20;;;;;;;22.60;15.83;;;0.70;99.90;;;;;;5086037;28;20270;-72
2021/12/22 11:49:55;;;;;;;23.13;14.87;;;0.70;99.90;;;;;;5068689;28;20332;-72
2021/12/22 11:52:39;;;;;;;23.43;16.10;;;0.70;99.90;;;;;;5083137;28;20180;-72
2021/12/22 11:55:18;;;;;;;29.23;15.97;;;0.80;99.90;;;;;;5086263;28;20245;-72
2021/12/22 11:57:47;;;;;;;27.23;15.80;;;0.70;99.90;;;;;;5088497;28;20271;-71
2021/12/22 12:00:33;;;;;;;23.53;15.70;;;0.90;99.90;;;;;;5087047;28;20184;-72
2021/12/22 12:03:24;;;;;;;27.37;17.90;;;1.10;99.90;;;;;;5088344;28;20176;-72
2021/12/22 12:06:06;;;;;;;29.77;16.70;;;0.90;99.90;;;;;;5068188;28;20209;-71
2021/12/22 12:08:39;;;;;;;27.00;16.63;;;0.90;99.90;;;;;;5067079;28;20213;-71
2021/12/22 12:11:07;;;;;;;30.47;18.13;;;1.00;99.90;;;;;;5065032;28;20196;-71
2021/12/22 12:13:50;;;;;;;24.13;16.43;;;1.10;99.90;;;;;;5086273;28;20231;-71
2021/12/22 12:22:07;;;;;;;20.03;14.23;;;1.00;99.90;;;;;;5085197;28;20347;-71
2021/12/22 12:24:37;;;;;;;25.10;16.47;;;1.40;99.90;;;;;;5093987;28;20263;-71
2021/12/22 12:27:32;;;;;;;24.77;15.43;;;1.40;99.90;;;;;;5072844;28;20188;-71
2021/12/22 12:29:59;;;;;;;21.97;16.03;;;1.60;99.90;;;;;;5083604;28;20529;-72
2021/12/22 12:32:40;;;;;;;25.27;16.97;;;1.70;99.90;;;;;;5074341;28;20264;-72
2021/12/22 12:35:23;;;;;;;23.57;15.17;;;2.10;99.90;;;;;;5056427;28;20326;-71
2021/12/22 12:37:58;;;;;;;21.23;13.37;;;2.30;99.90;;;;;;5075537;28;20184;-70
2021/12/22 12:41:00;;;;;;;23.63;14.57;;;2.50;99.90;;;;;;5093818;28;20184;-66
2021/12/22 12:46:27;;;;;;;22.47;11.90;;;3.00;99.90;;;;;;5080625;28;20200;-69
2021/12/22 12:49:07;;;;;;;19.83;11.73;;;3.00;99.90;;;;;;5084771;28;20226;-69
2021/12/22 12:51:33;;;;;;;26.73;13.37;;;3.00;99.90;;;;;;5085967;28;20247;-69
2021/12/22 12:54:09;;;;;;;21.60;11.93;;;3.00;99.90;;;;;;5065587;28;20211;-68
2021/12/22 12:56:40;;;;;;;23.23;12.63;;;2.90;99.90;;;;;;5083465;28;20180;-69
2021/12/22 12:59:14;;;;;;;18.47;11.40;;;2.90;99.90;;;;;;5083980;28;20226;-69
2021/12/22 13:01:46;;;;;;;17.80;10.23;;;3.00;99.90;;;;;;5083371;28;20522;-68
2021/12/22 13:04:28;;;;;;;24.37;12.60;;;3.00;99.90;;;;;;5086117;28;20185;-69
2021/12/22 13:07:14;;;;;;;20.60;11.77;;;3.00;99.90;;;;;;5085792;28;20184;-69
2021/12/22 13:09:48;;;;;;;16.27;12.17;;;3.10;99.90;;;;;;5065637;28;20223;-73
2021/12/22 13:12:35;;;;;;;18.97;12.73;;;3.10;99.90;;;;;;5086310;28;20650;-70
2021/12/22 13:18:21;;;;;;;12.73;8.80;;;3.10;99.90;;;;;;5030878;28;20191;-72
2021/12/22 13:20:48;;;;;;;15.93;10.67;;;3.00;99.90;;;;;;5014691;28;20194;-70